sensor_id;sensor_type;location;lat;lon;timestamp;P1;durP1;ratioP1;P2;durP2;ratioP2
8893;SDS011;4483;48.622;9.230;2022-12-11T00:02:00;19.77;;;13.13;;
8893;SDS011;4483;48.622;9.230;2022-12-11T00:04:28;19.93;;;15.57;;
8893;SDS011;4483;48.622;9.230;2022-12-11T00:06:55;19.07;;;13.43;;
8893;SDS011;4483;48.622;9.230;2022-12-11T00:09:21;18.80;;;12.97;;
8893;SDS011;4483;48.622;9.230;2022-12-11T00:11:50;15.63;;;11.70;;
8893;SDS011;4483;48.622;9.230;2022-12-11T00:14:16;18.00;;;12.97;;
8893;SDS011;4483;48.622;9.230;2022-12-11T00:16:43;21.40;;;14.00;;
8893;SDS011;4483;48.622;9.230;2022-12-11T00:19:13;16.93;;;12.33;;
8893;SDS011;4483;48.622;9.230;2022-12-11T00:21:40;18.83;;;12.53;;
8893;SDS011;4483;48.622;9.230;2022-12-11T00:24:06;18.57;;;12.23;;
8893;SDS011;4483;48.622;9.230;2022-12-11T00:26:33;14.33;;;11.00;;
8893;SDS011;4483;48.622;9.230;2022-12-11T00:29:01;18.10;;;12.30;;
8893;SDS011;4483;48.622;9.230;2022-12-11T00:31:28;15.77;;;11.50;;
8893;SDS011;4483;48.622;9.230;2022-12-11T00:33:55;16.77;;;11.50;;
8893;SDS011;4483;48.622;9.230;2022-12-11T00:36:22;13.37;;;11.20;;
8893;SDS011;4483;48.622;9.230;2022-12-11T00:38:50;13.47;;;10.53;;
8893;SDS011;4483;48.622;9.230;2022-12-11T00:41:18;14.73;;;10.70;;
8893;SDS011;4483;48.622;9.230;2022-12-11T00:43:44;15.83;;;10.67;;
8893;SDS011;4483;48.622;9.230;2022-12-11T00:46:13;15.10;;;10.53;;
8893;SDS011;4483;48.622;9.230;2022-12-11T00:48:40;12.60;;;10.07;;
8893;SDS011;4483;48.622;9.230;2022-12-11T00:51:07;14.03;;;10.30;;
8893;SDS011;4483;48.622;9.230;2022-12-11T00:53:34;15.33;;;10.93;;
8893;SDS011;4483;48.622;9.230;2022-12-11T00:56:01;14.13;;;10.47;;
8893;SDS011;4483;48.622;9.230;2022-12-11T00:58:35;16.83;;;11.53;;
8893;SDS011;4483;48.622;9.230;2022-12-11T01:01:04;14.17;;;10.87;;
8893;SDS011;4483;48.622;9.230;2022-12-11T01:03:33;12.93;;;10.57;;
8893;SDS011;4483;48.622;9.230;2022-12-11T01:06:00;13.77;;;10.43;;
8893;SDS011;4483;48.622;9.230;2022-12-11T01:08:26;14.83;;;11.00;;
8893;SDS011;4483;48.622;9.230;2022-12-11T01:10:59;14.27;;;9.93;;
8893;SDS011;4483;48.622;9.230;2022-12-11T01:13:26;14.97;;;10.53;;
8893;SDS011;4483;48.622;9.230;2022-12-11T01:15:53;14.10;;;9.97;;
8893;SDS011;4483;48.622;9.230;2022-12-11T01:18:19;13.37;;;10.53;;
8893;SDS011;4483;48.622;9.230;2022-12-11T01:20:47;13.10;;;10.03;;
8893;SDS011;4483;48.622;9.230;2022-12-11T01:23:14;12.67;;;9.57;;
8893;SDS011;4483;48.622;9.230;2022-12-11T01:25:41;14.40;;;10.10;;
8893;SDS011;4483;48.622;9.230;2022-12-11T01:28:08;11.77;;;9.40;;
8893;SDS011;4483;48.622;9.230;2022-12-11T01:30:35;12.53;;;9.73;;
8893;SDS011;4483;48.622;9.230;2022-12-11T01:33:02;13.27;;;10.53;;
8893;SDS011;4483;48.622;9.230;2022-12-11T01:35:29;14.27;;;10.70;;
8893;SDS011;4483;48.622;9.230;2022-12-11T01:37:57;13.33;;;9.23;;
8893;SDS011;4483;48.622;9.230;2022-12-11T01:40:24;12.03;;;9.77;;
8893;SDS011;4483;48.622;9.230;2022-12-11T01:42:50;11.57;;;9.60;;
8893;SDS011;4483;48.622;9.230;2022-12-11T01:45:25;12.50;;;10.30;;
8893;SDS011;4483;48.622;9.230;2022-12-11T01:47:59;13.03;;;9.90;;
8893;SDS011;4483;48.622;9.230;2022-12-11T01:50:31;12.70;;;9.60;;
8893;SDS011;4483;48.622;9.230;2022-12-11T01:53:01;11.83;;;9.43;;
8893;SDS011;4483;48.622;9.230;2022-12-11T01:55:31;11.37;;;9.00;;
8893;SDS011;4483;48.622;9.230;2022-12-11T01:57:58;11.97;;;9.50;;
8893;SDS011;4483;48.622;9.230;2022-12-11T02:00:27;12.27;;;9.37;;
8893;SDS011;4483;48.622;9.230;2022-12-11T02:02:54;13.73;;;9.63;;
8893;SDS011;4483;48.622;9.230;2022-12-11T02:05:20;11.67;;;8.87;;
8893;SDS011;4483;48.622;9.230;2022-12-11T02:07:48;13.93;;;9.83;;
8893;SDS011;4483;48.622;9.230;2022-12-11T02:10:19;12.13;;;10.00;;
8893;SDS011;4483;48.622;9.230;2022-12-11T02:12:50;11.93;;;9.63;;
8893;SDS011;4483;48.622;9.230;2022-12-11T02:15:24;13.70;;;10.57;;
8893;SDS011;4483;48.622;9.230;2022-12-11T02:17:59;13.87;;;10.03;;
8893;SDS011;4483;48.622;9.230;2022-12-11T02:20:33;13.63;;;10.70;;
8893;SDS011;4483;48.622;9.230;2022-12-11T02:26:09;12.83;;;10.00;;
8893;SDS011;4483;48.622;9.230;2022-12-11T02:28:49;12.83;;;10.20;;
8893;SDS011;4483;48.622;9.230;2022-12-11T02:31:21;16.97;;;12.60;;
8893;SDS011;4483;48.622;9.230;2022-12-11T02:33:54;13.20;;;9.87;;
8893;SDS011;4483;48.622;9.230;2022-12-11T02:36:27;14.67;;;10.27;;
8893;SDS011;4483;48.622;9.230;2022-12-11T02:38:57;12.87;;;9.77;;
8893;SDS011;4483;48.622;9.230;2022-12-11T02:41:26;15.60;;;10.57;;
8893;SDS011;4483;48.622;9.230;2022-12-11T02:43:56;17.53;;;11.27;;
8893;SDS011;4483;48.622;9.230;2022-12-11T02:46:24;14.50;;;10.90;;
8893;SDS011;4483;48.622;9.230;2022-12-11T02:48:52;13.60;;;10.23;;
8893;SDS011;4483;48.622;9.230;2022-12-11T02:51:23;15.10;;;10.60;;
8893;SDS011;4483;48.622;9.230;2022-12-11T02:53:52;13.53;;;10.47;;
8893;SDS011;4483;48.622;9.230;2022-12-11T02:56:23;13.70;;;10.50;;
8893;SDS011;4483;48.622;9.230;2022-12-11T02:58:56;13.10;;;9.90;;
8893;SDS011;4483;48.622;9.230;2022-12-11T03:01:26;14.47;;;10.63;;
8893;SDS011;4483;48.622;9.230;2022-12-11T03:03:53;14.13;;;10.50;;
8893;SDS011;4483;48.622;9.230;2022-12-11T03:06:23;13.83;;;10.53;;
8893;SDS011;4483;48.622;9.230;2022-12-11T03:08:56;15.10;;;9.93;;
8893;SDS011;4483;48.622;9.230;2022-12-11T03:11:22;12.50;;;9.93;;
8893;SDS011;4483;48.622;9.230;2022-12-11T03:13:49;14.50;;;10.50;;
8893;SDS011;4483;48.622;9.230;2022-12-11T03:16:19;13.67;;;9.87;;
8893;SDS011;4483;48.622;9.230;2022-12-11T03:18:56;12.73;;;10.03;;
8893;SDS011;4483;48.622;9.230;2022-12-11T03:21:28;12.07;;;9.50;;
8893;SDS011;4483;48.622;9.230;2022-12-11T03:24:00;13.50;;;9.70;;
8893;SDS011;4483;48.622;9.230;2022-12-11T03:26:31;14.03;;;10.23;;
8893;SDS011;4483;48.622;9.230;2022-12-11T03:29:06;12.90;;;9.73;;
8893;SDS011;4483;48.622;9.230;2022-12-11T03:31:42;14.90;;;10.33;;
8893;SDS011;4483;48.622;9.230;2022-12-11T03:34:12;13.20;;;9.93;;
8893;SDS011;4483;48.622;9.230;2022-12-11T03:36:43;15.53;;;10.70;;
8893;SDS011;4483;48.622;9.230;2022-12-11T03:39:14;13.20;;;8.87;;
8893;SDS011;4483;48.622;9.230;2022-12-11T03:41:44;13.07;;;9.60;;
8893;SDS011;4483;48.622;9.230;2022-12-11T03:44:13;12.13;;;9.00;;
8893;SDS011;4483;48.622;9.230;2022-12-11T03:46:43;12.73;;;9.30;;
8893;SDS011;4483;48.622;9.230;2022-12-11T03:49:14;10.30;;;7.87;;
8893;SDS011;4483;48.622;9.230;2022-12-11T03:51:44;11.50;;;9.17;;
8893;SDS011;4483;48.622;9.230;2022-12-11T03:54:13;13.30;;;9.90;;
8893;SDS011;4483;48.622;9.230;2022-12-11T03:56:40;13.00;;;9.50;;
8893;SDS011;4483;48.622;9.230;2022-12-11T03:59:10;12.97;;;8.50;;
8893;SDS011;4483;48.622;9.230;2022-12-11T04:01:37;13.07;;;9.83;;
8893;SDS011;4483;48.622;9.230;2022-12-11T04:04:05;13.77;;;10.17;;
8893;SDS011;4483;48.622;9.230;2022-12-11T04:06:32;11.30;;;9.20;;
8893;SDS011;4483;48.622;9.230;2022-12-11T04:08:58;11.77;;;9.07;;
8893;SDS011;4483;48.622;9.230;2022-12-11T04:11:25;11.97;;;9.70;;
8893;SDS011;4483;48.622;9.230;2022-12-11T04:14:01;12.10;;;9.63;;
8893;SDS011;4483;48.622;9.230;2022-12-11T04:16:46;13.63;;;9.80;;
8893;SDS011;4483;48.622;9.230;2022-12-11T04:19:14;13.03;;;9.93;;
8893;SDS011;4483;48.622;9.230;2022-12-11T04:21:58;14.10;;;9.87;;
8893;SDS011;4483;48.622;9.230;2022-12-11T04:24:53;14.20;;;9.90;;
8893;SDS011;4483;48.622;9.230;2022-12-11T04:27:20;14.93;;;10.50;;
8893;SDS011;4483;48.622;9.230;2022-12-11T04:30:05;13.63;;;10.40;;
8893;SDS011;4483;48.622;9.230;2022-12-11T04:32:35;13.47;;;8.67;;
8893;SDS011;4483;48.622;9.230;2022-12-11T04:35:04;12.13;;;9.37;;
8893;SDS011;4483;48.622;9.230;2022-12-11T04:37:32;11.97;;;9.10;;
8893;SDS011;4483;48.622;9.230;2022-12-11T04:39:58;10.00;;;8.13;;
8893;SDS011;4483;48.622;9.230;2022-12-11T04:42:25;11.23;;;8.70;;
8893;SDS011;4483;48.622;9.230;2022-12-11T04:44:52;10.97;;;9.27;;
8893;SDS011;4483;48.622;9.230;2022-12-11T04:47:18;11.93;;;8.97;;
8893;SDS011;4483;48.622;9.230;2022-12-11T04:49:45;12.37;;;9.27;;
8893;SDS011;4483;48.622;9.230;2022-12-11T04:52:13;12.10;;;8.87;;
8893;SDS011;4483;48.622;9.230;2022-12-11T04:54:40;12.17;;;9.00;;
8893;SDS011;4483;48.622;9.230;2022-12-11T04:57:06;11.73;;;8.30;;
8893;SDS011;4483;48.622;9.230;2022-12-11T04:59:33;12.57;;;9.17;;
8893;SDS011;4483;48.622;9.230;2022-12-11T05:02:01;10.10;;;8.33;;
8893;SDS011;4483;48.622;9.230;2022-12-11T05:04:29;11.27;;;8.40;;
8893;SDS011;4483;48.622;9.230;2022-12-11T05:06:56;10.13;;;7.57;;
8893;SDS011;4483;48.622;9.230;2022-12-11T05:09:24;9.40;;;7.47;;
8893;SDS011;4483;48.622;9.230;2022-12-11T05:11:51;8.67;;;6.70;;
8893;SDS011;4483;48.622;9.230;2022-12-11T05:14:18;8.70;;;7.53;;
8893;SDS011;4483;48.622;9.230;2022-12-11T05:16:45;9.33;;;6.83;;
8893;SDS011;4483;48.622;9.230;2022-12-11T05:19:12;7.67;;;6.57;;
8893;SDS011;4483;48.622;9.230;2022-12-11T05:21:38;8.23;;;6.70;;
8893;SDS011;4483;48.622;9.230;2022-12-11T05:24:05;8.07;;;6.43;;
8893;SDS011;4483;48.622;9.230;2022-12-11T05:26:34;11.77;;;7.53;;
8893;SDS011;4483;48.622;9.230;2022-12-11T05:29:00;10.07;;;6.77;;
8893;SDS011;4483;48.622;9.230;2022-12-11T05:31:27;9.67;;;7.70;;
8893;SDS011;4483;48.622;9.230;2022-12-11T05:33:54;8.60;;;7.50;;
8893;SDS011;4483;48.622;9.230;2022-12-11T05:36:21;8.97;;;7.17;;
8893;SDS011;4483;48.622;9.230;2022-12-11T05:38:49;9.30;;;7.23;;
8893;SDS011;4483;48.622;9.230;2022-12-11T05:41:18;10.63;;;7.67;;
8893;SDS011;4483;48.622;9.230;2022-12-11T05:43:47;9.87;;;8.03;;
8893;SDS011;4483;48.622;9.230;2022-12-11T05:46:14;9.23;;;7.53;;
8893;SDS011;4483;48.622;9.230;2022-12-11T05:48:42;9.47;;;7.23;;
8893;SDS011;4483;48.622;9.230;2022-12-11T05:51:10;12.00;;;7.63;;
8893;SDS011;4483;48.622;9.230;2022-12-11T05:53:38;9.97;;;7.50;;
8893;SDS011;4483;48.622;9.230;2022-12-11T05:56:06;9.53;;;7.93;;
8893;SDS011;4483;48.622;9.230;2022-12-11T05:58:35;11.47;;;7.67;;
8893;SDS011;4483;48.622;9.230;2022-12-11T06:01:07;10.70;;;7.87;;
8893;SDS011;4483;48.622;9.230;2022-12-11T06:03:34;9.30;;;8.23;;
8893;SDS011;4483;48.622;9.230;2022-12-11T06:06:01;10.07;;;8.17;;
8893;SDS011;4483;48.622;9.230;2022-12-11T06:08:28;11.27;;;8.50;;
8893;SDS011;4483;48.622;9.230;2022-12-11T06:10:54;11.27;;;8.87;;
8893;SDS011;4483;48.622;9.230;2022-12-11T06:13:21;10.63;;;7.90;;
8893;SDS011;4483;48.622;9.230;2022-12-11T06:15:48;11.27;;;8.03;;
8893;SDS011;4483;48.622;9.230;2022-12-11T06:18:16;11.43;;;8.90;;
8893;SDS011;4483;48.622;9.230;2022-12-11T06:20:42;11.23;;;8.27;;
8893;SDS011;4483;48.622;9.230;2022-12-11T06:23:09;12.53;;;8.90;;
8893;SDS011;4483;48.622;9.230;2022-12-11T06:25:36;11.67;;;9.10;;
8893;SDS011;4483;48.622;9.230;2022-12-11T06:28:04;12.00;;;8.63;;
8893;SDS011;4483;48.622;9.230;2022-12-11T06:30:30;10.23;;;8.50;;
8893;SDS011;4483;48.622;9.230;2022-12-11T06:32:57;12.73;;;9.10;;
8893;SDS011;4483;48.622;9.230;2022-12-11T06:35:25;12.50;;;8.70;;
8893;SDS011;4483;48.622;9.230;2022-12-11T06:37:52;13.20;;;9.43;;
8893;SDS011;4483;48.622;9.230;2022-12-11T06:40:18;12.47;;;8.93;;
8893;SDS011;4483;48.622;9.230;2022-12-11T06:42:45;10.33;;;8.50;;
8893;SDS011;4483;48.622;9.230;2022-12-11T06:45:12;12.20;;;9.30;;
8893;SDS011;4483;48.622;9.230;2022-12-11T06:47:38;11.70;;;8.60;;
8893;SDS011;4483;48.622;9.230;2022-12-11T06:50:05;13.43;;;9.13;;
8893;SDS011;4483;48.622;9.230;2022-12-11T06:52:33;10.23;;;8.13;;
8893;SDS011;4483;48.622;9.230;2022-12-11T06:55:00;12.47;;;8.23;;
8893;SDS011;4483;48.622;9.230;2022-12-11T06:57:27;12.13;;;8.97;;
8893;SDS011;4483;48.622;9.230;2022-12-11T06:59:53;12.93;;;9.07;;
8893;SDS011;4483;48.622;9.230;2022-12-11T07:02:20;11.93;;;8.70;;
8893;SDS011;4483;48.622;9.230;2022-12-11T07:04:47;12.03;;;8.07;;
8893;SDS011;4483;48.622;9.230;2022-12-11T07:07:13;11.33;;;8.73;;
8893;SDS011;4483;48.622;9.230;2022-12-11T07:09:41;11.00;;;8.10;;
8893;SDS011;4483;48.622;9.230;2022-12-11T07:12:08;10.33;;;8.23;;
8893;SDS011;4483;48.622;9.230;2022-12-11T07:14:34;11.17;;;9.00;;
8893;SDS011;4483;48.622;9.230;2022-12-11T07:17:01;10.27;;;8.00;;
8893;SDS011;4483;48.622;9.230;2022-12-11T07:19:28;10.97;;;8.13;;
8893;SDS011;4483;48.622;9.230;2022-12-11T07:21:54;11.27;;;8.03;;
8893;SDS011;4483;48.622;9.230;2022-12-11T07:24:21;11.03;;;8.33;;
8893;SDS011;4483;48.622;9.230;2022-12-11T07:26:49;11.68;;;10.32;;
8893;SDS011;4483;48.622;9.230;2022-12-11T07:29:16;10.57;;;8.70;;
8893;SDS011;4483;48.622;9.230;2022-12-11T07:31:43;13.60;;;9.13;;
8893;SDS011;4483;48.622;9.230;2022-12-11T07:34:10;10.57;;;8.50;;
8893;SDS011;4483;48.622;9.230;2022-12-11T07:36:38;11.10;;;8.77;;
8893;SDS011;4483;48.622;9.230;2022-12-11T07:39:04;9.80;;;7.90;;
8893;SDS011;4483;48.622;9.230;2022-12-11T07:41:32;11.50;;;8.33;;
8893;SDS011;4483;48.622;9.230;2022-12-11T07:44:00;10.80;;;8.63;;
8893;SDS011;4483;48.622;9.230;2022-12-11T07:46:28;11.90;;;8.73;;
8893;SDS011;4483;48.622;9.230;2022-12-11T07:48:56;11.60;;;8.13;;
8893;SDS011;4483;48.622;9.230;2022-12-11T07:51:25;10.90;;;8.83;;
8893;SDS011;4483;48.622;9.230;2022-12-11T07:53:54;10.40;;;7.73;;
8893;SDS011;4483;48.622;9.230;2022-12-11T07:56:22;11.50;;;8.60;;
8893;SDS011;4483;48.622;9.230;2022-12-11T07:58:49;10.77;;;8.10;;
8893;SDS011;4483;48.622;9.230;2022-12-11T08:01:18;9.73;;;7.93;;
8893;SDS011;4483;48.622;9.230;2022-12-11T08:03:46;9.87;;;8.20;;
8893;SDS011;4483;48.622;9.230;2022-12-11T08:06:12;11.10;;;8.20;;
8893;SDS011;4483;48.622;9.230;2022-12-11T08:08:40;9.23;;;7.90;;
8893;SDS011;4483;48.622;9.230;2022-12-11T08:11:08;12.63;;;8.23;;
8893;SDS011;4483;48.622;9.230;2022-12-11T08:13:37;10.17;;;7.87;;
8893;SDS011;4483;48.622;9.230;2022-12-11T08:16:04;12.03;;;8.47;;
8893;SDS011;4483;48.622;9.230;2022-12-11T08:18:33;9.83;;;7.70;;
8893;SDS011;4483;48.622;9.230;2022-12-11T08:21:03;11.80;;;8.73;;
8893;SDS011;4483;48.622;9.230;2022-12-11T08:23:31;10.43;;;7.60;;
8893;SDS011;4483;48.622;9.230;2022-12-11T08:25:57;10.73;;;8.10;;
8893;SDS011;4483;48.622;9.230;2022-12-11T08:28:24;9.43;;;7.57;;
8893;SDS011;4483;48.622;9.230;2022-12-11T08:30:51;12.47;;;8.63;;
8893;SDS011;4483;48.622;9.230;2022-12-11T08:33:17;10.93;;;8.03;;
8893;SDS011;4483;48.622;9.230;2022-12-11T08:35:45;9.73;;;8.00;;
8893;SDS011;4483;48.622;9.230;2022-12-11T08:38:12;12.47;;;9.43;;
8893;SDS011;4483;48.622;9.230;2022-12-11T08:40:39;9.20;;;7.70;;
8893;SDS011;4483;48.622;9.230;2022-12-11T08:43:06;9.97;;;7.87;;
8893;SDS011;4483;48.622;9.230;2022-12-11T08:45:33;12.23;;;7.83;;
8893;SDS011;4483;48.622;9.230;2022-12-11T08:47:59;10.50;;;8.03;;
8893;SDS011;4483;48.622;9.230;2022-12-11T08:50:26;10.07;;;8.03;;
8893;SDS011;4483;48.622;9.230;2022-12-11T08:52:54;12.63;;;8.77;;
8893;SDS011;4483;48.622;9.230;2022-12-11T08:55:21;13.33;;;8.57;;
8893;SDS011;4483;48.622;9.230;2022-12-11T08:57:48;10.97;;;8.40;;
8893;SDS011;4483;48.622;9.230;2022-12-11T09:00:15;11.50;;;8.53;;
8893;SDS011;4483;48.622;9.230;2022-12-11T09:02:42;12.00;;;9.03;;
8893;SDS011;4483;48.622;9.230;2022-12-11T09:05:09;10.07;;;8.10;;
8893;SDS011;4483;48.622;9.230;2022-12-11T09:07:36;12.10;;;8.77;;
8893;SDS011;4483;48.622;9.230;2022-12-11T09:10:05;11.00;;;8.37;;
8893;SDS011;4483;48.622;9.230;2022-12-11T09:12:33;11.97;;;8.03;;
8893;SDS011;4483;48.622;9.230;2022-12-11T09:15:00;10.47;;;7.90;;
8893;SDS011;4483;48.622;9.230;2022-12-11T09:17:26;11.60;;;8.30;;
8893;SDS011;4483;48.622;9.230;2022-12-11T09:19:53;11.60;;;8.30;;
8893;SDS011;4483;48.622;9.230;2022-12-11T09:22:20;11.03;;;8.67;;
8893;SDS011;4483;48.622;9.230;2022-12-11T09:24:46;11.00;;;8.27;;
8893;SDS011;4483;48.622;9.230;2022-12-11T09:27:14;12.90;;;8.67;;
8893;SDS011;4483;48.622;9.230;2022-12-11T09:29:41;9.63;;;7.93;;
8893;SDS011;4483;48.622;9.230;2022-12-11T09:32:08;10.83;;;8.10;;
8893;SDS011;4483;48.622;9.230;2022-12-11T09:34:34;13.03;;;8.53;;
8893;SDS011;4483;48.622;9.230;2022-12-11T09:37:01;10.93;;;8.60;;
8893;SDS011;4483;48.622;9.230;2022-12-11T09:39:28;11.40;;;8.67;;
8893;SDS011;4483;48.622;9.230;2022-12-11T09:41:56;12.33;;;8.67;;
8893;SDS011;4483;48.622;9.230;2022-12-11T09:44:33;12.00;;;9.23;;
8893;SDS011;4483;48.622;9.230;2022-12-11T09:47:07;12.53;;;8.77;;
8893;SDS011;4483;48.622;9.230;2022-12-11T09:49:49;10.80;;;8.33;;
8893;SDS011;4483;48.622;9.230;2022-12-11T09:52:22;10.80;;;8.37;;
8893;SDS011;4483;48.622;9.230;2022-12-11T09:54:59;11.73;;;8.90;;
8893;SDS011;4483;48.622;9.230;2022-12-11T09:57:34;14.47;;;10.50;;
8893;SDS011;4483;48.622;9.230;2022-12-11T10:00:15;14.20;;;12.00;;
8893;SDS011;4483;48.622;9.230;2022-12-11T10:03:01;14.07;;;10.93;;
8893;SDS011;4483;48.622;9.230;2022-12-11T10:05:46;12.30;;;8.77;;
8893;SDS011;4483;48.622;9.230;2022-12-11T10:08:22;11.13;;;8.80;;
8893;SDS011;4483;48.622;9.230;2022-12-11T10:10:56;10.50;;;8.60;;
8893;SDS011;4483;48.622;9.230;2022-12-11T10:13:32;12.97;;;9.77;;
8893;SDS011;4483;48.622;9.230;2022-12-11T10:16:04;12.73;;;9.00;;
8893;SDS011;4483;48.622;9.230;2022-12-11T10:18:40;11.63;;;9.23;;
8893;SDS011;4483;48.622;9.230;2022-12-11T10:21:07;13.50;;;8.77;;
8893;SDS011;4483;48.622;9.230;2022-12-11T10:23:37;12.90;;;9.43;;
8893;SDS011;4483;48.622;9.230;2022-12-11T10:26:09;10.33;;;7.83;;
8893;SDS011;4483;48.622;9.230;2022-12-11T10:28:41;12.73;;;8.80;;
8893;SDS011;4483;48.622;9.230;2022-12-11T10:31:11;12.07;;;9.30;;
8893;SDS011;4483;48.622;9.230;2022-12-11T10:33:45;11.47;;;8.80;;
8893;SDS011;4483;48.622;9.230;2022-12-11T10:36:22;11.00;;;8.30;;
8893;SDS011;4483;48.622;9.230;2022-12-11T10:38:52;12.70;;;8.73;;
8893;SDS011;4483;48.622;9.230;2022-12-11T10:41:20;13.17;;;9.50;;
8893;SDS011;4483;48.622;9.230;2022-12-11T10:43:50;13.97;;;9.27;;
8893;SDS011;4483;48.622;9.230;2022-12-11T10:46:20;13.27;;;9.07;;
8893;SDS011;4483;48.622;9.230;2022-12-11T10:48:49;12.07;;;9.40;;
8893;SDS011;4483;48.622;9.230;2022-12-11T10:51:18;11.83;;;9.43;;
8893;SDS011;4483;48.622;9.230;2022-12-11T10:53:50;13.07;;;9.43;;
8893;SDS011;4483;48.622;9.230;2022-12-11T10:56:23;12.23;;;8.73;;
8893;SDS011;4483;48.622;9.230;2022-12-11T10:58:51;11.50;;;8.87;;
8893;SDS011;4483;48.622;9.230;2022-12-11T11:01:20;11.20;;;8.87;;
8893;SDS011;4483;48.622;9.230;2022-12-11T11:03:52;13.73;;;8.87;;
8893;SDS011;4483;48.622;9.230;2022-12-11T11:06:22;12.00;;;8.90;;
8893;SDS011;4483;48.622;9.230;2022-12-11T11:08:50;11.77;;;8.63;;
8893;SDS011;4483;48.622;9.230;2022-12-11T11:11:20;12.20;;;8.70;;
8893;SDS011;4483;48.622;9.230;2022-12-11T11:13:52;10.50;;;8.30;;
8893;SDS011;4483;48.622;9.230;2022-12-11T11:16:43;11.97;;;8.70;;
8893;SDS011;4483;48.622;9.230;2022-12-11T11:19:18;12.33;;;8.13;;
8893;SDS011;4483;48.622;9.230;2022-12-11T11:21:48;13.93;;;9.07;;
8893;SDS011;4483;48.622;9.230;2022-12-11T11:24:26;14.60;;;9.20;;
8893;SDS011;4483;48.622;9.230;2022-12-11T11:26:57;11.57;;;8.00;;
8893;SDS011;4483;48.622;9.230;2022-12-11T11:29:24;10.13;;;7.53;;
8893;SDS011;4483;48.622;9.230;2022-12-11T11:32:12;9.50;;;7.50;;
8893;SDS011;4483;48.622;9.230;2022-12-11T11:34:41;10.53;;;8.10;;
8893;SDS011;4483;48.622;9.230;2022-12-11T11:37:14;9.63;;;7.30;;
8893;SDS011;4483;48.622;9.230;2022-12-11T11:39:48;10.90;;;8.17;;
8893;SDS011;4483;48.622;9.230;2022-12-11T11:42:21;11.93;;;8.50;;
8893;SDS011;4483;48.622;9.230;2022-12-11T11:44:58;12.43;;;8.83;;
8893;SDS011;4483;48.622;9.230;2022-12-11T11:47:32;12.43;;;8.50;;
8893;SDS011;4483;48.622;9.230;2022-12-11T11:50:05;12.07;;;8.70;;
8893;SDS011;4483;48.622;9.230;2022-12-11T11:52:38;11.67;;;8.63;;
8893;SDS011;4483;48.622;9.230;2022-12-11T11:55:12;10.93;;;7.23;;
8893;SDS011;4483;48.622;9.230;2022-12-11T11:57:42;11.37;;;8.40;;
8893;SDS011;4483;48.622;9.230;2022-12-11T12:00:16;11.43;;;7.93;;
8893;SDS011;4483;48.622;9.230;2022-12-11T12:02:46;10.57;;;8.30;;
8893;SDS011;4483;48.622;9.230;2022-12-11T12:05:15;11.73;;;8.10;;
8893;SDS011;4483;48.622;9.230;2022-12-11T12:07:49;11.40;;;8.30;;
8893;SDS011;4483;48.622;9.230;2022-12-11T12:10:24;13.63;;;8.87;;
8893;SDS011;4483;48.622;9.230;2022-12-11T12:13:00;12.57;;;8.70;;
8893;SDS011;4483;48.622;9.230;2022-12-11T12:15:34;12.57;;;8.70;;
8893;SDS011;4483;48.622;9.230;2022-12-11T12:18:11;13.40;;;7.90;;
8893;SDS011;4483;48.622;9.230;2022-12-11T12:20:45;12.57;;;8.03;;
8893;SDS011;4483;48.622;9.230;2022-12-11T12:23:27;10.03;;;7.10;;
8893;SDS011;4483;48.622;9.230;2022-12-11T12:26:05;6.90;;;6.10;;
8893;SDS011;4483;48.622;9.230;2022-12-11T12:28:38;12.33;;;7.27;;
8893;SDS011;4483;48.622;9.230;2022-12-11T12:31:16;9.90;;;6.80;;
8893;SDS011;4483;48.622;9.230;2022-12-11T12:34:04;6.83;;;5.97;;
8893;SDS011;4483;48.622;9.230;2022-12-11T12:36:40;9.77;;;5.97;;
8893;SDS011;4483;48.622;9.230;2022-12-11T12:39:17;8.23;;;6.10;;
8893;SDS011;4483;48.622;9.230;2022-12-11T12:41:54;8.50;;;5.37;;
8893;SDS011;4483;48.622;9.230;2022-12-11T12:44:27;7.17;;;5.57;;
8893;SDS011;4483;48.622;9.230;2022-12-11T12:47:01;7.83;;;5.73;;
8893;SDS011;4483;48.622;9.230;2022-12-11T12:49:36;9.97;;;6.40;;
8893;SDS011;4483;48.622;9.230;2022-12-11T12:52:05;6.87;;;5.50;;
8893;SDS011;4483;48.622;9.230;2022-12-11T12:54:39;7.20;;;5.50;;
8893;SDS011;4483;48.622;9.230;2022-12-11T12:57:07;10.00;;;5.90;;
8893;SDS011;4483;48.622;9.230;2022-12-11T12:59:34;9.57;;;6.53;;
8893;SDS011;4483;48.622;9.230;2022-12-11T13:02:01;8.17;;;6.10;;
8893;SDS011;4483;48.622;9.230;2022-12-11T13:04:34;10.20;;;6.40;;
8893;SDS011;4483;48.622;9.230;2022-12-11T13:07:11;11.60;;;7.17;;
8893;SDS011;4483;48.622;9.230;2022-12-11T13:09:41;9.83;;;7.03;;
8893;SDS011;4483;48.622;9.230;2022-12-11T13:12:11;9.30;;;6.97;;
8893;SDS011;4483;48.622;9.230;2022-12-11T13:14:40;11.17;;;7.87;;
8893;SDS011;4483;48.622;9.230;2022-12-11T13:17:21;11.13;;;7.00;;
8893;SDS011;4483;48.622;9.230;2022-12-11T13:20:04;8.23;;;6.73;;
8893;SDS011;4483;48.622;9.230;2022-12-11T13:22:46;10.17;;;6.47;;
8893;SDS011;4483;48.622;9.230;2022-12-11T13:25:17;8.23;;;6.87;;
8893;SDS011;4483;48.622;9.230;2022-12-11T13:27:47;10.13;;;6.77;;
8893;SDS011;4483;48.622;9.230;2022-12-11T13:30:21;9.00;;;6.63;;
8893;SDS011;4483;48.622;9.230;2022-12-11T13:32:53;9.97;;;6.97;;
8893;SDS011;4483;48.622;9.230;2022-12-11T13:35:28;10.57;;;7.30;;
8893;SDS011;4483;48.622;9.230;2022-12-11T13:37:57;9.40;;;6.40;;
8893;SDS011;4483;48.622;9.230;2022-12-11T13:40:32;9.80;;;6.83;;
8893;SDS011;4483;48.622;9.230;2022-12-11T13:43:04;11.83;;;6.17;;
8893;SDS011;4483;48.622;9.230;2022-12-11T13:45:35;8.17;;;6.50;;
8893;SDS011;4483;48.622;9.230;2022-12-11T13:48:11;9.87;;;7.03;;
8893;SDS011;4483;48.622;9.230;2022-12-11T13:50:44;9.70;;;6.77;;
8893;SDS011;4483;48.622;9.230;2022-12-11T13:53:12;10.47;;;7.17;;
8893;SDS011;4483;48.622;9.230;2022-12-11T13:55:41;10.07;;;7.23;;
8893;SDS011;4483;48.622;9.230;2022-12-11T13:58:14;10.83;;;7.87;;
8893;SDS011;4483;48.622;9.230;2022-12-11T14:00:42;10.00;;;7.60;;
8893;SDS011;4483;48.622;9.230;2022-12-11T14:03:22;11.07;;;8.00;;
8893;SDS011;4483;48.622;9.230;2022-12-11T14:05:50;10.27;;;7.50;;
8893;SDS011;4483;48.622;9.230;2022-12-11T14:08:19;8.47;;;7.07;;
8893;SDS011;4483;48.622;9.230;2022-12-11T14:10:50;11.97;;;7.03;;
8893;SDS011;4483;48.622;9.230;2022-12-11T14:13:18;15.57;;;10.60;;
8893;SDS011;4483;48.622;9.230;2022-12-11T14:15:49;12.97;;;9.97;;
8893;SDS011;4483;48.622;9.230;2022-12-11T14:18:17;12.33;;;10.47;;
8893;SDS011;4483;48.622;9.230;2022-12-11T14:20:53;12.53;;;7.90;;
8893;SDS011;4483;48.622;9.230;2022-12-11T14:23:22;8.57;;;6.77;;
8893;SDS011;4483;48.622;9.230;2022-12-11T14:25:51;13.37;;;9.30;;
8893;SDS011;4483;48.622;9.230;2022-12-11T14:28:18;10.87;;;7.43;;
8893;SDS011;4483;48.622;9.230;2022-12-11T14:30:46;10.33;;;6.90;;
8893;SDS011;4483;48.622;9.230;2022-12-11T14:33:15;9.17;;;7.10;;
8893;SDS011;4483;48.622;9.230;2022-12-11T14:35:43;15.70;;;13.60;;
8893;SDS011;4483;48.622;9.230;2022-12-11T14:38:14;11.63;;;8.27;;
8893;SDS011;4483;48.622;9.230;2022-12-11T14:40:46;10.67;;;9.30;;
8893;SDS011;4483;48.622;9.230;2022-12-11T14:43:19;10.00;;;7.77;;
8893;SDS011;4483;48.622;9.230;2022-12-11T14:45:47;19.73;;;16.10;;
8893;SDS011;4483;48.622;9.230;2022-12-11T14:48:20;12.40;;;9.43;;
8893;SDS011;4483;48.622;9.230;2022-12-11T14:50:51;12.20;;;8.40;;
8893;SDS011;4483;48.622;9.230;2022-12-11T14:53:23;9.50;;;7.93;;
8893;SDS011;4483;48.622;9.230;2022-12-11T14:55:53;10.50;;;7.57;;
8893;SDS011;4483;48.622;9.230;2022-12-11T14:58:23;11.70;;;7.67;;
8893;SDS011;4483;48.622;9.230;2022-12-11T15:00:55;9.57;;;6.97;;
8893;SDS011;4483;48.622;9.230;2022-12-11T15:03:23;11.67;;;6.87;;
8893;SDS011;4483;48.622;9.230;2022-12-11T15:05:56;12.63;;;6.87;;
8893;SDS011;4483;48.622;9.230;2022-12-11T15:08:26;8.03;;;6.77;;
8893;SDS011;4483;48.622;9.230;2022-12-11T15:10:58;8.90;;;6.97;;
8893;SDS011;4483;48.622;9.230;2022-12-11T15:13:28;8.37;;;6.87;;
8893;SDS011;4483;48.622;9.230;2022-12-11T15:15:55;9.33;;;7.20;;
8893;SDS011;4483;48.622;9.230;2022-12-11T15:18:23;11.10;;;7.87;;
8893;SDS011;4483;48.622;9.230;2022-12-11T15:20:53;8.90;;;6.70;;